Latest Weather Observations for Taree Airport

IDN60801

Issued at 6:23 pm EST Saturday 9 May 2026 (issued every 10 minutes, with the page automatically refreshed every 10 minutes)

About weather observations | Map of weather stations | Latest weather observations for NSW | Other Formats
Station Details ID: 060141 Name: TAREE AIRPORT AWS Lat: -31.89 Lon: 152.51 Height: 8.0 m
Data from the previous 72 hours. | See also: Recent months at Taree Airport
Date/Time
EST
Temp
°C
App
Temp
°C
Dew
Point
°C
Rel
Hum
%
Delta-T
°C
Wind Press
QNH
hPa
Press
MSL
hPa
Rain since
9am
mm
Dir  Spd
km/h
Gust
km/h
Spd
kts
Gust
kts
09/06:00pm 16.9 15.9 10.3 65 3.5 SSE 6 9 3 5 1024.0 1024.0 0.0
09/05:30pm 18.0 16.5 10.6 62 4.0 SSE 9 11 5 6 1023.5 1023.5 0.0
09/05:00pm 19.0 17.3 11.1 60 4.3 SE 11 15 6 8 1023.2 1023.2 0.0
09/04:30pm 20.0 18.2 10.7 55 5.1 SE 11 17 6 9 1022.8 1022.8 0.0
09/04:00pm 20.7 18.3 10.2 51 5.7 SE 13 20 7 11 1022.6 1022.6 0.0
09/03:30pm 21.1 19.4 11.2 53 5.5 SE 11 15 6 8 1022.4 1022.4 0.0
09/03:00pm 20.8 18.5 10.3 51 5.7 SE 13 19 7 10 1022.2 1022.2 0.0
09/02:30pm 22.6 21.3 10.1 45 6.8 SSE 7 17 4 9 1022.1 1022.1 0.0
09/02:00pm 23.2 21.3 9.2 41 7.5 S 9 19 5 10 1022.0 1022.0 0.0
09/01:30pm 23.4 21.7 9.8 42 7.4 SW 9 17 5 9 1022.1 1022.1 0.0
09/01:00pm 22.2 19.4 8.7 42 7.1 SW 13 17 7 9 1022.3 1022.3 0.0
09/12:30pm 22.6 20.5 9.7 44 7.0 SSW 11 19 6 10 1022.7 1022.7 0.0
09/12:00pm 22.1 19.2 9.6 45 6.7 W 15 24 8 13 1023.1 1023.1 0.0
09/11:30am 21.3 18.7 9.2 46 6.4 W 13 19 7 10 1023.5 1023.5 0.0
09/11:00am 20.9 18.1 8.5 45 6.5 WSW 13 19 7 10 1023.9 1023.9 0.0
09/10:30am 19.7 16.5 8.4 48 5.9 W 15 20 8 11 1024.1 1024.1 0.0
09/10:00am 18.8 15.1 7.9 49 5.6 W 17 26 9 14 1024.3 1024.3 0.0
09/09:30am 17.7 13.6 7.7 52 5.1 W 19 28 10 15 1024.5 1024.5 0.0
09/09:00am 16.5 13.4 7.2 54 4.6 WSW 13 20 7 11 1024.7 1024.7 0.0
09/08:30am 15.8 12.8 7.6 58 4.1 WNW 13 19 7 10 1024.3 1024.3 0.0
09/08:00am 13.8 11.4 6.9 63 3.3 WNW 9 13 5 7 1024.3 1024.3 0.0
09/07:30am 12.3 9.3 6.1 66 2.9 W 11 15 6 8 1023.9 1023.9 0.0
09/07:00am 11.4 8.8 5.9 69 2.5 WNW 9 15 5 8 1023.5 1023.5 0.0
09/06:30am 10.7 7.6 5.5 70 2.4 WNW 11 15 6 8 1022.9 1022.9 0.0
09/06:00am 11.2 7.7 5.5 68 2.6 WNW 13 17 7 9 1022.6 1022.6 0.0
09/05:30am 11.0 7.1 5.3 68 2.6 NW 15 17 8 9 1022.1 1022.1 0.0
09/05:00am 11.4 7.9 5.5 67 2.7 WNW 13 15 7 8 1021.9 1021.9 0.0
09/04:30am 11.8 8.3 5.4 65 3.0 WNW 13 17 7 9 1021.7 1021.7 0.0
09/04:00am 11.9 8.7 5.3 64 3.0 WNW 11 19 6 10 1021.7 1021.7 0.0
09/03:30am 11.8 8.3 5.4 65 3.0 NW 13 15 7 8 1021.6 1021.6 0.0
09/03:00am 12.4 9.7 5.6 63 3.2 WNW 9 13 5 7 1021.5 1021.5 0.0
09/02:30am 12.6 9.9 5.5 62 3.3 WNW 9 13 5 7 1021.4 1021.4 0.0
09/02:00am 12.9 9.5 5.8 62 3.3 W 13 17 7 9 1021.6 1021.6 0.0
09/01:30am 13.0 9.6 6.1 63 3.3 W 13 17 7 9 1021.5 1021.5 0.0
09/01:00am 13.1 10.0 5.5 60 3.5 W 11 15 6 8 1021.5 1021.5 0.0
09/12:30am 13.3 10.2 5.7 60 3.6 W 11 15 6 8 1021.4 1021.4 0.0
09/12:00am 13.8 10.7 5.7 58 3.8 W 11 15 6 8 1021.3 1021.3 0.0
 
Date/Time
EST
Temp
°C
App
Temp
°C
Dew
Point
°C
Rel
Hum
%
Delta-T
°C
Wind Press
QNH
hPa
Press
MSL
hPa
Rain since
9am
mm
Dir  Spd
km/h
Gust
km/h
Spd
kts
Gust
kts
08/11:30pm 14.1 10.7 5.7 57 4.0 W 13 19 7 10 1021.2 1021.2 0.0
08/11:00pm 14.2 10.7 5.6 56 4.1 W 13 17 7 9 1021.2 1021.2 0.0
08/10:30pm 13.9 10.4 5.3 56 4.0 W 13 17 7 9 1021.1 1021.1 0.0
08/10:00pm 13.8 10.6 5.2 56 4.0 W 11 15 6 8 1021.2 1021.2 0.0
08/09:30pm 13.6 10.8 5.3 57 3.9 W 9 11 5 6 1021.1 1021.1 0.0
08/09:00pm 12.2 9.9 5.6 64 3.1 W 7 9 4 5 1020.7 1020.7 0.0
08/08:30pm 13.3 10.8 6.4 63 3.3 WSW 9 15 5 8 1020.4 1020.4 0.0
08/08:00pm 14.0 11.4 5.9 58 3.8 WSW 9 11 5 6 1019.9 1019.9 0.0
08/07:30pm 14.4 11.5 4.4 51 4.6 WNW 9 11 5 6 1019.4 1019.4 0.0
08/07:00pm 14.9 12.0 4.9 51 4.7 W 9 9 5 5 1018.9 1018.9 0.0
08/06:30pm 16.5 13.4 3.6 42 6.0 NW 9 9 5 5 1018.5 1018.5 0.0
08/06:00pm 16.9 14.4 4.9 45 5.7 W 7 9 4 5 1018.1 1018.1 0.0
08/05:30pm 17.9 15.5 4.5 41 6.4 WSW 6 9 3 5 1017.3 1017.3 0.0
08/05:00pm 18.9 15.1 3.9 37 7.1 SW 13 20 7 11 1016.8 1016.8 0.0
08/04:30pm 20.1 15.1 3.8 34 7.8 SW 19 28 10 15 1016.4 1016.4 0.0
08/04:00pm 20.8 15.6 3.5 32 8.2 WSW 20 30 11 16 1016.2 1016.2 0.0
08/03:30pm 21.2 15.8 4.7 34 8.1 SW 22 28 12 15 1016.1 1016.1 0.0
08/03:00pm 21.5 16.7 4.6 33 8.3 W 19 28 10 15 1016.1 1016.1 0.0
08/02:30pm 20.9 13.8 3.6 32 8.3 SW 30 39 16 21 1016.0 1016.0 0.0
08/02:00pm 21.1 15.6 4.2 33 8.2 W 22 33 12 18 1015.8 1015.8 0.0
08/01:30pm 20.8 15.8 4.4 34 7.9 W 20 35 11 19 1016.0 1016.0 0.0
08/01:00pm 20.0 15.4 3.7 34 7.7 W 17 26 9 14 1016.5 1016.5 0.0
08/12:30pm 19.8 14.3 3.9 35 7.6 W 22 32 12 17 1016.9 1016.9 0.0
08/12:00pm 18.9 12.8 2.7 34 7.5 W 24 35 13 19 1017.3 1017.3 0.0
08/11:30am 18.4 12.6 2.3 34 7.3 W 22 32 12 17 1017.7 1017.7 0.0
08/11:00am 18.0 12.3 2.7 36 7.0 W 22 30 12 16 1018.2 1018.2 0.0
08/10:30am 17.0 10.5 2.6 38 6.5 W 26 35 14 19 1018.5 1018.5 0.0
08/10:00am 15.9 9.6 1.6 38 6.3 W 24 37 13 20 1019.0 1019.0 0.0
08/09:30am 14.9 8.9 1.1 39 6.0 WNW 22 33 12 18 1019.1 1019.1 0.0
08/09:00am 14.3 9.4 1.9 43 5.4 WNW 17 26 9 14 1019.2 1019.2 0.0
08/08:30am 13.2 7.9 2.1 47 4.8 WNW 19 28 10 15 1019.3 1019.3 0.0
08/08:00am 11.6 6.5 1.0 48 4.4 WNW 17 26 9 14 1019.5 1019.5 0.0
08/07:30am 10.3 6.7 0.9 52 3.9 NW 9 13 5 7 1019.5 1019.5 0.0
08/07:00am 8.6 5.6 0.6 57 3.2 WNW 6 9 3 5 1019.5 1019.5 0.0
08/06:30am 7.9 4.2 -0.3 56 3.2 NW 9 11 5 6 1019.3 1019.3 0.0
08/06:00am 8.4 3.9 -0.4 54 3.4 WNW 13 20 7 11 1019.3 1019.3 0.0
08/05:30am 8.8 3.9 -0.5 52 3.6 W 15 20 8 11 1019.3 1019.3 0.0
08/05:00am 8.9 4.3 -0.7 51 3.7 WNW 13 17 7 9 1019.1 1019.1 0.0
08/04:30am 9.1 4.9 -1.0 49 3.9 NW 11 13 6 7 1019.0 1019.0 0.0
08/04:00am 8.7 4.9 -1.1 50 3.8 NNW 9 11 5 6 1018.8 1018.8 0.0
08/03:30am 8.0 4.2 -0.7 54 3.4 NNW 9 11 5 6 1018.8 1018.8 0.0
08/03:00am 8.3 4.5 -1.0 52 3.6 NNW 9 11 5 6 1019.0 1019.0 0.0
08/02:30am 9.1 5.3 -1.0 49 3.9 WNW 9 13 5 7 1019.1 1019.1 0.0
08/02:00am 8.9 5.4 -1.2 49 3.9 NNW 7 11 4 6 1019.4 1019.4 0.0
08/01:30am 10.9 5.9 -1.5 42 4.9 W 15 22 8 12 1019.5 1019.5 0.0
08/01:00am 10.7 5.3 -1.0 44 4.6 W 17 22 9 12 1019.4 1019.4 0.0
08/12:30am 11.0 6.3 -1.7 41 5.0 W 13 19 7 10 1019.4 1019.4 0.0
08/12:00am 11.2 6.2 -1.5 41 5.0 W 15 20 8 11 1019.3 1019.3 0.0
 
Date/Time
EST
Temp
°C
App
Temp
°C
Dew
Point
°C
Rel
Hum
%
Delta-T
°C
Wind Press
QNH
hPa
Press
MSL
hPa
Rain since
9am
mm
Dir  Spd
km/h
Gust
km/h
Spd
kts
Gust
kts
07/11:30pm 11.6 6.1 -2.2 38 5.4 W 17 24 9 13 1019.0 1019.0 0.0
07/11:00pm 12.0 6.1 -2.2 37 5.5 W 19 26 10 14 1019.0 1019.0 0.0
07/10:30pm 12.0 6.4 -2.6 36 5.6 W 17 24 9 13 1019.3 1019.3 0.0
07/10:00pm 12.1 7.3 -2.5 36 5.6 W 13 17 7 9 1019.2 1019.2 0.0
07/09:30pm 12.7 7.9 -2.3 35 5.9 W 13 20 7 11 1019.0 1019.0 0.0
07/09:00pm 13.4 7.4 -2.9 32 6.3 W 19 28 10 15 1018.5 1018.5 0.0
07/08:30pm 13.7 8.1 -3.1 31 6.5 W 17 26 9 14 1018.4 1018.4 0.0
07/08:00pm 13.8 8.6 -3.0 31 6.5 W 15 20 8 11 1018.3 1018.3 0.0
07/07:30pm 14.1 8.9 -2.8 31 6.6 W 15 22 8 12 1018.1 1018.1 0.0
07/07:00pm 15.0 9.8 -2.9 29 7.1 W 15 26 8 14 1017.6 1017.6 0.0
07/06:30pm 15.6 9.4 -2.8 28 7.4 W 20 32 11 17 1017.0 1017.0 0.0
07/06:00pm 16.0 9.4 -3.5 26 7.7 W 22 37 12 20 1016.2 1016.2 0.0
07/05:30pm 16.6 9.3 -2.5 27 7.8 WSW 26 41 14 22 1015.8 1015.8 0.0
07/05:00pm 17.7 10.3 -1.0 28 7.9 WSW 28 52 15 28 1014.6 1014.6 0.0
07/04:30pm 18.3 11.2 3.4 37 6.9 WSW 30 48 16 26 1013.8 1013.8 0.0
07/04:21pm 18.3 11.2 3.8 38 6.8 WSW 30 48 16 26 1013.6 1013.6 0.0
07/04:00pm 18.6 12.0 6.1 44 6.2 SW 30 41 16 22 1013.1 1013.1 0.0
07/03:30pm 20.1 14.1 5.4 38 7.2 W 26 41 14 22 1012.5 1012.5 0.0
07/03:07pm 21.9 15.4 4.5 32 8.5 WNW 28 50 15 27 1011.9 1011.9 0.0
07/03:00pm 22.2 16.5 4.7 32 8.6 WNW 24 37 13 20 1011.8 1011.8 0.0
07/02:30pm 21.4 16.7 5.3 35 8.0 WNW 19 32 10 17 1012.0 1012.0 0.0
07/02:00pm 22.5 17.2 5.0 32 8.7 WNW 22 33 12 18 1011.8 1011.8 0.0
07/01:30pm 22.6 18.0 5.5 33 8.6 W 19 32 10 17 1012.1 1012.1 0.0
07/01:06pm 22.9 16.4 4.9 31 8.9 W 28 48 15 26 1012.2 1012.2 0.0
07/01:00pm 22.7 16.5 6.0 34 8.5 WSW 28 41 15 22 1012.2 1012.2 0.0
07/12:30pm 22.3 16.8 6.1 35 8.2 WSW 24 33 13 18 1012.3 1012.3 0.0
07/12:00pm 22.6 18.5 8.0 39 7.7 WSW 19 28 10 15 1012.6 1012.6 0.0
07/11:30am 22.1 17.9 8.2 41 7.3 W 20 30 11 16 1013.2 1013.2 0.0
07/11:00am 21.7 17.4 7.9 41 7.2 WSW 20 33 11 18 1013.5 1013.5 0.0
07/10:30am 21.4 17.8 8.3 43 6.9 WSW 17 30 9 16 1013.8 1013.8 0.0
07/10:00am 20.5 16.5 8.2 45 6.4 W 19 30 10 16 1014.1 1014.1 0.0
07/09:30am 19.5 16.9 9.4 52 5.3 W 13 17 7 9 1014.2 1014.2 0.0
07/09:00am 18.0 16.6 12.2 69 3.2 WSW 11 15 6 8 1014.3 1014.3 0.2
07/08:30am 15.3 15.3 13.7 90 0.9 ESE 6 7 3 4 1014.3 1014.3 0.2
07/08:00am 13.2 14.0 12.7 97 0.3 CALM 0 0 0 0 1014.4 1014.4 0.2
07/07:35am 10.9 9.9 10.4 97 0.3 NE 6 9 3 5 1014.1 1014.1 0.2
07/07:30am 10.5 8.8 10.0 97 0.3 NE 9 11 5 6 1014.0 1014.0 0.2
07/07:22am 10.0 8.1 9.2 95 0.4 NE 9 11 5 6 1013.9 1013.9 0.2
07/07:00am 12.5 11.8 11.9 96 0.3 SW 7 13 4 7 1013.8 1013.8 0.2
07/06:30am 12.3 11.1 11.7 96 0.3 WSW 9 15 5 8 1013.6 1013.6 0.2
07/06:00am 11.9 12.1 11.7 99 0.1 SSW 2 11 1 6 1013.5 1013.5 0.2
07/05:30am 11.6 11.3 11.3 98 0.2 S 4 7 2 4 1013.5 1013.5 0.2
07/05:26am 11.5 11.1 11.2 98 0.2 S 4 7 2 4 1013.5 1013.5 0.2
07/05:13am 10.9 9.4 10.4 97 0.3 S 9 11 5 6 1013.6 1013.6 0.2
07/05:12am 11.0 9.5 10.7 98 0.2 S 9 11 5 6 1013.6 1013.6 0.2
07/05:00am 10.6 9.0 10.3 98 0.2 N 9 15 5 8 1013.5 1013.5 0.2
07/04:57am 9.9 8.4 9.3 96 0.3 N 7 9 4 5 1013.5 1013.5 0.2
07/04:30am 11.8 12.2 11.3 97 0.3 CALM 0 0 0 0 1013.6 1013.6 0.0
07/04:09am 11.7 11.6 10.8 94 0.5 WSW 2 6 1 3 1013.6 1013.6 0.0
07/04:00am 12.6 12.0 11.8 95 0.4 W 6 6 3 3 1013.7 1013.7 0.0
07/03:30am 13.4 12.9 12.8 96 0.3 WNW 7 9 4 5 1013.7 1013.7 0.0
07/03:00am 13.7 13.0 13.1 96 0.3 WNW 9 11 5 6 1013.6 1013.6 0.0
07/02:30am 13.6 13.2 13.0 96 0.3 W 7 11 4 6 1014.0 1014.0 0.0
07/02:00am 13.8 13.6 13.5 98 0.2 WNW 7 9 4 5 1014.3 1014.3 0.0
07/01:45am 12.8 12.3 12.5 98 0.2 NW 7 7 4 4 1014.4 1014.4 0.0
07/01:30am 12.4 13.0 11.9 97 0.3 CALM 0 0 0 0 1014.5 1014.5 0.0
07/01:28am 12.4 13.0 11.9 97 0.3 CALM 0 0 0 0 1014.5 1014.5 0.0
07/01:00am 13.2 13.7 12.7 97 0.3 NW 2 6 1 3 1014.7 1014.7 0.0
07/12:54am 13.1 12.8 12.6 97 0.3 NW 6 7 3 4 1014.7 1014.7 0.0
07/12:38am 12.5 11.9 11.7 95 0.4 NW 6 7 3 4 1014.7 1014.7 0.0
07/12:30am 14.1 13.9 13.5 96 0.3 NW 7 9 4 5 1014.8 1014.8 0.0
07/12:11am 13.6 14.5 13.0 96 0.3 CALM 0 0 0 0 1014.9 1014.9 0.0
07/12:00am 13.5 14.4 12.9 96 0.3 CALM 0 0 0 0 1014.9 1014.9 0.0
 
Date/Time
EST
Temp
°C
App
Temp
°C
Dew
Point
°C
Rel
Hum
%
Delta-T
°C
Wind Press
QNH
hPa
Press
MSL
hPa
Rain since
9am
mm
Dir  Spd
km/h
Gust
km/h
Spd
kts
Gust
kts
06/11:53pm 13.7 14.7 13.1 96 0.3 CALM 0 0 0 0 1015.0 1015.0 0.0
06/11:30pm 14.5 15.7 13.9 96 0.3 CALM 0 4 0 2 1015.2 1015.2 0.0
06/11:00pm 14.7 14.8 13.9 95 0.4 W 6 7 3 4 1015.4 1015.4 0.0
06/10:30pm 15.4 17.0 14.8 96 0.3 CALM 0 7 0 4 1015.7 1015.7 0.0
06/10:00pm 15.3 16.3 14.3 94 0.6 ENE 2 7 1 4 1016.1 1016.1 0.0
06/09:30pm 15.2 16.5 14.1 93 0.6 CALM 0 0 0 0 1016.5 1016.5 0.0
06/09:00pm 15.3 16.6 14.2 93 0.6 CALM 0 0 0 0 1016.6 1016.6 0.0
06/08:30pm 15.7 16.0 14.6 93 0.6 E 6 9 3 5 1016.6 1016.6 0.0
06/08:00pm 16.5 17.9 14.5 88 1.1 CALM 0 0 0 0 1016.7 1016.7 0.0
06/07:30pm 16.7 18.3 14.9 89 1.0 CALM 0 0 0 0 1016.6 1016.6 0.0
06/07:00pm 17.6 19.4 15.4 87 1.3 CALM 0 2 0 1 1016.6 1016.6 0.0
06/06:30pm 17.1 17.4 14.9 87 1.3 ENE 7 7 4 4 1016.5 1016.5 0.0

Other formats

Comma delimited format used in spreadsheet applications
http://www.bom.gov.au/fwo/IDN60801/IDN60801.95784.axf

JavaScript Object Notation format (JSON) in row-major order
http://www.bom.gov.au/fwo/IDN60801/IDN60801.95784.json

Data quality

Most of these data are generated automatically and are frequently updated. Quality checks on data are not normally performed. It is possible for incorrect values to appear. Refer to information at About Latest Weather Observations and please check the disclaimer before using these data.